sensor_id;sensor_type;location;lat;lon;timestamp;temperature;humidity
24470;DHT22;12635;50.852;5.676;2023-05-07T00:01:37;13.40;99.90
24470;DHT22;12635;50.852;5.676;2023-05-07T00:04:04;13.40;99.90
24470;DHT22;12635;50.852;5.676;2023-05-07T00:06:32;13.50;99.90
24470;DHT22;12635;50.852;5.676;2023-05-07T00:08:59;13.50;99.90
24470;DHT22;12635;50.852;5.676;2023-05-07T00:11:26;13.40;99.90
24470;DHT22;12635;50.852;5.676;2023-05-07T00:13:53;13.40;99.90
24470;DHT22;12635;50.852;5.676;2023-05-07T00:16:21;13.50;99.90
24470;DHT22;12635;50.852;5.676;2023-05-07T00:18:48;13.60;99.90
24470;DHT22;12635;50.852;5.676;2023-05-07T00:21:15;13.60;99.90
24470;DHT22;12635;50.852;5.676;2023-05-07T00:23:42;13.60;99.90
24470;DHT22;12635;50.852;5.676;2023-05-07T00:26:09;13.60;99.90
24470;DHT22;12635;50.852;5.676;2023-05-07T00:28:36;13.50;99.90
24470;DHT22;12635;50.852;5.676;2023-05-07T00:31:02;13.50;99.90
24470;DHT22;12635;50.852;5.676;2023-05-07T00:33:31;13.50;99.90
24470;DHT22;12635;50.852;5.676;2023-05-07T00:35:57;13.50;99.90
24470;DHT22;12635;50.852;5.676;2023-05-07T00:38:26;13.50;99.90
24470;DHT22;12635;50.852;5.676;2023-05-07T00:40:53;13.40;99.90
24470;DHT22;12635;50.852;5.676;2023-05-07T00:43:20;13.40;99.90
24470;DHT22;12635;50.852;5.676;2023-05-07T00:45:46;13.40;99.90
24470;DHT22;12635;50.852;5.676;2023-05-07T00:48:13;13.40;99.90
24470;DHT22;12635;50.852;5.676;2023-05-07T00:50:42;13.30;99.90
24470;DHT22;12635;50.852;5.676;2023-05-07T00:53:09;13.30;99.90
24470;DHT22;12635;50.852;5.676;2023-05-07T00:55:36;13.30;99.90
24470;DHT22;12635;50.852;5.676;2023-05-07T00:58:03;13.30;99.90
24470;DHT22;12635;50.852;5.676;2023-05-07T01:00:31;13.30;99.90
24470;DHT22;12635;50.852;5.676;2023-05-07T01:02:58;13.30;99.90
24470;DHT22;12635;50.852;5.676;2023-05-07T01:05:24;13.30;99.90
24470;DHT22;12635;50.852;5.676;2023-05-07T01:07:54;13.30;99.90
24470;DHT22;12635;50.852;5.676;2023-05-07T01:10:21;13.20;99.90
24470;DHT22;12635;50.852;5.676;2023-05-07T01:12:48;13.20;99.90
24470;DHT22;12635;50.852;5.676;2023-05-07T01:15:16;13.20;99.90
24470;DHT22;12635;50.852;5.676;2023-05-07T01:17:43;13.20;99.90
24470;DHT22;12635;50.852;5.676;2023-05-07T01:20:10;13.10;99.90
24470;DHT22;12635;50.852;5.676;2023-05-07T01:22:39;13.10;99.90
24470;DHT22;12635;50.852;5.676;2023-05-07T01:25:07;13.00;99.90
24470;DHT22;12635;50.852;5.676;2023-05-07T01:27:33;13.00;99.90
24470;DHT22;12635;50.852;5.676;2023-05-07T01:30:00;12.90;99.90
24470;DHT22;12635;50.852;5.676;2023-05-07T01:32:28;12.80;99.90
24470;DHT22;12635;50.852;5.676;2023-05-07T01:34:55;12.80;99.90
24470;DHT22;12635;50.852;5.676;2023-05-07T01:37:24;12.80;99.90
24470;DHT22;12635;50.852;5.676;2023-05-07T01:39:52;12.80;99.90
24470;DHT22;12635;50.852;5.676;2023-05-07T01:42:20;12.70;99.90
24470;DHT22;12635;50.852;5.676;2023-05-07T01:44:48;12.70;99.90
24470;DHT22;12635;50.852;5.676;2023-05-07T01:47:14;12.80;99.90
24470;DHT22;12635;50.852;5.676;2023-05-07T01:49:42;12.70;99.90
24470;DHT22;12635;50.852;5.676;2023-05-07T01:52:10;12.70;99.90
24470;DHT22;12635;50.852;5.676;2023-05-07T01:54:36;12.70;99.90
24470;DHT22;12635;50.852;5.676;2023-05-07T01:57:05;12.60;99.90
24470;DHT22;12635;50.852;5.676;2023-05-07T01:59:32;12.50;99.90
24470;DHT22;12635;50.852;5.676;2023-05-07T02:01:58;12.50;99.90
24470;DHT22;12635;50.852;5.676;2023-05-07T02:04:26;12.60;99.90
24470;DHT22;12635;50.852;5.676;2023-05-07T02:06:52;12.50;99.90
24470;DHT22;12635;50.852;5.676;2023-05-07T02:09:19;12.50;99.90
24470;DHT22;12635;50.852;5.676;2023-05-07T02:11:46;12.50;99.90
24470;DHT22;12635;50.852;5.676;2023-05-07T02:14:14;12.50;99.90
24470;DHT22;12635;50.852;5.676;2023-05-07T02:16:41;12.50;99.90
24470;DHT22;12635;50.852;5.676;2023-05-07T02:19:08;12.60;99.90
24470;DHT22;12635;50.852;5.676;2023-05-07T02:21:35;12.60;99.90
24470;DHT22;12635;50.852;5.676;2023-05-07T02:24:02;12.80;99.90
24470;DHT22;12635;50.852;5.676;2023-05-07T02:26:29;12.90;99.90
24470;DHT22;12635;50.852;5.676;2023-05-07T02:28:56;12.90;99.90
24470;DHT22;12635;50.852;5.676;2023-05-07T02:31:24;13.00;99.90
24470;DHT22;12635;50.852;5.676;2023-05-07T02:33:51;13.10;99.90
24470;DHT22;12635;50.852;5.676;2023-05-07T02:36:17;13.00;99.90
24470;DHT22;12635;50.852;5.676;2023-05-07T02:38:44;12.80;99.90
24470;DHT22;12635;50.852;5.676;2023-05-07T02:41:11;12.80;99.90
24470;DHT22;12635;50.852;5.676;2023-05-07T02:43:40;12.80;99.90
24470;DHT22;12635;50.852;5.676;2023-05-07T02:46:07;12.80;99.90
24470;DHT22;12635;50.852;5.676;2023-05-07T02:48:35;12.80;99.90
24470;DHT22;12635;50.852;5.676;2023-05-07T02:51:02;12.70;99.90
24470;DHT22;12635;50.852;5.676;2023-05-07T02:53:30;12.70;99.90
24470;DHT22;12635;50.852;5.676;2023-05-07T02:55:58;12.80;99.90
24470;DHT22;12635;50.852;5.676;2023-05-07T02:58:25;12.80;99.90
24470;DHT22;12635;50.852;5.676;2023-05-07T03:00:52;12.80;99.90
24470;DHT22;12635;50.852;5.676;2023-05-07T03:03:19;12.80;99.90
24470;DHT22;12635;50.852;5.676;2023-05-07T03:05:48;12.80;99.90
24470;DHT22;12635;50.852;5.676;2023-05-07T03:08:14;12.80;99.90
24470;DHT22;12635;50.852;5.676;2023-05-07T03:10:41;12.70;99.90
24470;DHT22;12635;50.852;5.676;2023-05-07T03:13:08;12.60;99.90
24470;DHT22;12635;50.852;5.676;2023-05-07T03:15:35;12.70;99.90
24470;DHT22;12635;50.852;5.676;2023-05-07T03:18:02;12.60;99.90
24470;DHT22;12635;50.852;5.676;2023-05-07T03:20:29;12.60;99.90
24470;DHT22;12635;50.852;5.676;2023-05-07T03:22:57;12.70;99.90
24470;DHT22;12635;50.852;5.676;2023-05-07T03:25:24;12.60;99.90
24470;DHT22;12635;50.852;5.676;2023-05-07T03:27:51;12.60;99.90
24470;DHT22;12635;50.852;5.676;2023-05-07T03:30:18;12.60;99.90
24470;DHT22;12635;50.852;5.676;2023-05-07T03:32:45;12.50;99.90
24470;DHT22;12635;50.852;5.676;2023-05-07T03:35:12;12.50;99.90
24470;DHT22;12635;50.852;5.676;2023-05-07T03:37:39;12.50;99.90
24470;DHT22;12635;50.852;5.676;2023-05-07T03:40:08;12.50;99.90
24470;DHT22;12635;50.852;5.676;2023-05-07T03:42:35;12.50;99.90
24470;DHT22;12635;50.852;5.676;2023-05-07T03:45:03;12.50;99.90
24470;DHT22;12635;50.852;5.676;2023-05-07T03:47:29;12.60;99.90
24470;DHT22;12635;50.852;5.676;2023-05-07T03:49:56;12.60;99.90
24470;DHT22;12635;50.852;5.676;2023-05-07T03:52:23;12.80;99.90
24470;DHT22;12635;50.852;5.676;2023-05-07T03:54:51;12.80;99.90
24470;DHT22;12635;50.852;5.676;2023-05-07T03:57:19;12.90;99.90
24470;DHT22;12635;50.852;5.676;2023-05-07T03:59:46;12.90;99.90
24470;DHT22;12635;50.852;5.676;2023-05-07T04:02:13;13.00;99.90
24470;DHT22;12635;50.852;5.676;2023-05-07T04:04:40;13.00;99.90
24470;DHT22;12635;50.852;5.676;2023-05-07T04:07:07;13.00;99.90
24470;DHT22;12635;50.852;5.676;2023-05-07T04:09:33;13.00;99.90
24470;DHT22;12635;50.852;5.676;2023-05-07T04:12:00;13.00;99.90
24470;DHT22;12635;50.852;5.676;2023-05-07T04:14:29;12.90;99.90
24470;DHT22;12635;50.852;5.676;2023-05-07T04:16:57;12.90;99.90
24470;DHT22;12635;50.852;5.676;2023-05-07T04:19:24;12.90;99.90
24470;DHT22;12635;50.852;5.676;2023-05-07T04:21:51;12.90;99.90
24470;DHT22;12635;50.852;5.676;2023-05-07T04:24:18;12.90;99.90
24470;DHT22;12635;50.852;5.676;2023-05-07T04:26:45;12.90;99.90
24470;DHT22;12635;50.852;5.676;2023-05-07T04:29:12;12.90;99.90
24470;DHT22;12635;50.852;5.676;2023-05-07T04:31:40;12.90;99.90
24470;DHT22;12635;50.852;5.676;2023-05-07T04:34:09;13.00;99.90
24470;DHT22;12635;50.852;5.676;2023-05-07T04:36:36;13.00;99.90
24470;DHT22;12635;50.852;5.676;2023-05-07T04:39:03;13.10;99.90
24470;DHT22;12635;50.852;5.676;2023-05-07T04:41:30;13.10;99.90
24470;DHT22;12635;50.852;5.676;2023-05-07T04:43:57;13.20;99.90
24470;DHT22;12635;50.852;5.676;2023-05-07T04:46:24;13.20;99.90
24470;DHT22;12635;50.852;5.676;2023-05-07T04:48:52;13.20;99.90
24470;DHT22;12635;50.852;5.676;2023-05-07T04:51:19;13.30;99.90
24470;DHT22;12635;50.852;5.676;2023-05-07T04:53:46;13.30;99.90
24470;DHT22;12635;50.852;5.676;2023-05-07T04:56:13;13.40;99.90
24470;DHT22;12635;50.852;5.676;2023-05-07T04:58:39;13.50;99.90
24470;DHT22;12635;50.852;5.676;2023-05-07T05:01:06;13.50;99.90
24470;DHT22;12635;50.852;5.676;2023-05-07T05:03:33;13.60;99.90
24470;DHT22;12635;50.852;5.676;2023-05-07T05:06:01;13.60;99.90
24470;DHT22;12635;50.852;5.676;2023-05-07T05:08:29;13.80;99.90
24470;DHT22;12635;50.852;5.676;2023-05-07T05:10:56;13.90;99.90
24470;DHT22;12635;50.852;5.676;2023-05-07T05:13:23;14.00;99.90
24470;DHT22;12635;50.852;5.676;2023-05-07T05:15:50;14.10;99.90
24470;DHT22;12635;50.852;5.676;2023-05-07T05:18:17;14.10;99.90
24470;DHT22;12635;50.852;5.676;2023-05-07T05:20:44;14.20;99.90
24470;DHT22;12635;50.852;5.676;2023-05-07T05:23:12;14.30;99.90
24470;DHT22;12635;50.852;5.676;2023-05-07T05:25:39;14.30;99.90
24470;DHT22;12635;50.852;5.676;2023-05-07T05:28:05;14.40;99.90
24470;DHT22;12635;50.852;5.676;2023-05-07T05:30:32;14.50;99.90
24470;DHT22;12635;50.852;5.676;2023-05-07T05:32:59;14.60;99.90
24470;DHT22;12635;50.852;5.676;2023-05-07T05:35:26;14.60;99.90
24470;DHT22;12635;50.852;5.676;2023-05-07T05:37:53;14.80;99.90
24470;DHT22;12635;50.852;5.676;2023-05-07T05:40:21;14.90;99.90
24470;DHT22;12635;50.852;5.676;2023-05-07T05:42:48;15.20;99.90
24470;DHT22;12635;50.852;5.676;2023-05-07T05:45:15;15.40;99.90
24470;DHT22;12635;50.852;5.676;2023-05-07T05:47:43;15.60;99.90
24470;DHT22;12635;50.852;5.676;2023-05-07T05:50:10;15.60;99.90
24470;DHT22;12635;50.852;5.676;2023-05-07T05:52:36;15.70;99.90
24470;DHT22;12635;50.852;5.676;2023-05-07T05:55:03;15.60;99.90
24470;DHT22;12635;50.852;5.676;2023-05-07T05:57:32;15.60;99.90
24470;DHT22;12635;50.852;5.676;2023-05-07T05:59:59;15.80;99.90
24470;DHT22;12635;50.852;5.676;2023-05-07T06:02:26;15.90;99.90
24470;DHT22;12635;50.852;5.676;2023-05-07T06:04:53;16.00;99.90
24470;DHT22;12635;50.852;5.676;2023-05-07T06:07:20;16.00;99.90
24470;DHT22;12635;50.852;5.676;2023-05-07T06:09:47;16.00;99.90
24470;DHT22;12635;50.852;5.676;2023-05-07T06:12:14;16.10;99.90
24470;DHT22;12635;50.852;5.676;2023-05-07T06:14:43;16.00;99.90
24470;DHT22;12635;50.852;5.676;2023-05-07T06:17:10;15.90;99.90
24470;DHT22;12635;50.852;5.676;2023-05-07T06:19:37;15.90;99.90
24470;DHT22;12635;50.852;5.676;2023-05-07T06:22:04;15.80;99.90
24470;DHT22;12635;50.852;5.676;2023-05-07T06:24:31;16.00;99.90
24470;DHT22;12635;50.852;5.676;2023-05-07T06:26:57;16.30;99.90
24470;DHT22;12635;50.852;5.676;2023-05-07T06:29:24;16.60;99.90
24470;DHT22;12635;50.852;5.676;2023-05-07T06:31:53;17.20;99.90
24470;DHT22;12635;50.852;5.676;2023-05-07T06:34:20;17.30;99.90
24470;DHT22;12635;50.852;5.676;2023-05-07T06:36:47;17.70;99.90
24470;DHT22;12635;50.852;5.676;2023-05-07T06:39:14;17.70;99.90
24470;DHT22;12635;50.852;5.676;2023-05-07T06:41:41;17.30;99.90
24470;DHT22;12635;50.852;5.676;2023-05-07T06:44:07;17.30;99.90
24470;DHT22;12635;50.852;5.676;2023-05-07T06:46:34;17.50;99.90
24470;DHT22;12635;50.852;5.676;2023-05-07T06:49:02;17.80;99.90
24470;DHT22;12635;50.852;5.676;2023-05-07T06:51:29;18.10;99.90
24470;DHT22;12635;50.852;5.676;2023-05-07T06:53:56;18.80;99.90
24470;DHT22;12635;50.852;5.676;2023-05-07T06:56:23;19.10;99.90
24470;DHT22;12635;50.852;5.676;2023-05-07T06:58:50;19.50;99.90
24470;DHT22;12635;50.852;5.676;2023-05-07T07:01:17;21.30;99.90
24470;DHT22;12635;50.852;5.676;2023-05-07T07:03:44;21.40;99.90
24470;DHT22;12635;50.852;5.676;2023-05-07T07:06:12;20.80;99.90
24470;DHT22;12635;50.852;5.676;2023-05-07T07:08:39;21.60;99.90
24470;DHT22;12635;50.852;5.676;2023-05-07T07:11:06;21.80;99.90
24470;DHT22;12635;50.852;5.676;2023-05-07T07:13:33;22.20;99.90
24470;DHT22;12635;50.852;5.676;2023-05-07T07:16:00;21.70;99.90
24470;DHT22;12635;50.852;5.676;2023-05-07T07:18:26;20.30;99.90
24470;DHT22;12635;50.852;5.676;2023-05-07T07:20:53;19.70;99.90
24470;DHT22;12635;50.852;5.676;2023-05-07T07:23:22;19.60;99.90
24470;DHT22;12635;50.852;5.676;2023-05-07T07:25:48;19.90;99.90
24470;DHT22;12635;50.852;5.676;2023-05-07T07:28:15;19.90;99.90
24470;DHT22;12635;50.852;5.676;2023-05-07T07:30:42;21.10;99.90
24470;DHT22;12635;50.852;5.676;2023-05-07T07:33:09;22.00;99.90
24470;DHT22;12635;50.852;5.676;2023-05-07T07:35:36;23.60;99.90
24470;DHT22;12635;50.852;5.676;2023-05-07T07:38:03;24.90;99.90
24470;DHT22;12635;50.852;5.676;2023-05-07T07:40:31;25.90;99.90
24470;DHT22;12635;50.852;5.676;2023-05-07T07:42:58;22.60;99.90
24470;DHT22;12635;50.852;5.676;2023-05-07T07:45:26;21.50;99.90
24470;DHT22;12635;50.852;5.676;2023-05-07T07:47:53;21.00;99.90
24470;DHT22;12635;50.852;5.676;2023-05-07T07:50:20;20.80;99.90
24470;DHT22;12635;50.852;5.676;2023-05-07T07:52:47;21.80;99.90
24470;DHT22;12635;50.852;5.676;2023-05-07T07:55:14;22.60;99.90
24470;DHT22;12635;50.852;5.676;2023-05-07T07:57:47;22.90;99.90
24470;DHT22;12635;50.852;5.676;2023-05-07T08:00:15;22.60;99.90
24470;DHT22;12635;50.852;5.676;2023-05-07T08:02:42;23.50;99.90
24470;DHT22;12635;50.852;5.676;2023-05-07T08:05:09;23.20;99.90
24470;DHT22;12635;50.852;5.676;2023-05-07T08:07:36;23.10;99.90
24470;DHT22;12635;50.852;5.676;2023-05-07T08:10:03;22.70;99.90
24470;DHT22;12635;50.852;5.676;2023-05-07T08:12:30;22.30;99.90
24470;DHT22;12635;50.852;5.676;2023-05-07T08:14:58;22.90;99.90
24470;DHT22;12635;50.852;5.676;2023-05-07T08:17:28;23.10;99.90
24470;DHT22;12635;50.852;5.676;2023-05-07T08:19:54;23.50;99.90
24470;DHT22;12635;50.852;5.676;2023-05-07T08:22:21;24.60;99.90
24470;DHT22;12635;50.852;5.676;2023-05-07T08:24:48;24.80;99.90
24470;DHT22;12635;50.852;5.676;2023-05-07T08:27:15;24.80;99.90
24470;DHT22;12635;50.852;5.676;2023-05-07T08:29:42;26.80;99.90
24470;DHT22;12635;50.852;5.676;2023-05-07T08:32:14;27.20;99.90
24470;DHT22;12635;50.852;5.676;2023-05-07T08:34:40;28.80;99.90
24470;DHT22;12635;50.852;5.676;2023-05-07T08:37:07;29.70;99.90
24470;DHT22;12635;50.852;5.676;2023-05-07T08:39:34;30.70;99.90
24470;DHT22;12635;50.852;5.676;2023-05-07T08:42:01;30.70;99.90
24470;DHT22;12635;50.852;5.676;2023-05-07T08:44:31;26.90;99.90
24470;DHT22;12635;50.852;5.676;2023-05-07T08:46:59;24.90;99.90
24470;DHT22;12635;50.852;5.676;2023-05-07T08:49:28;25.60;99.90
24470;DHT22;12635;50.852;5.676;2023-05-07T08:51:55;24.90;99.90
24470;DHT22;12635;50.852;5.676;2023-05-07T08:54:22;25.30;99.90
24470;DHT22;12635;50.852;5.676;2023-05-07T08:56:50;25.60;99.90
24470;DHT22;12635;50.852;5.676;2023-05-07T08:59:16;26.00;99.90
24470;DHT22;12635;50.852;5.676;2023-05-07T09:01:43;27.40;99.90
24470;DHT22;12635;50.852;5.676;2023-05-07T09:04:10;27.50;99.90
24470;DHT22;12635;50.852;5.676;2023-05-07T09:06:39;27.50;99.90
24470;DHT22;12635;50.852;5.676;2023-05-07T09:09:07;27.20;99.90
24470;DHT22;12635;50.852;5.676;2023-05-07T09:11:34;25.90;99.90
24470;DHT22;12635;50.852;5.676;2023-05-07T09:14:00;25.60;99.90
24470;DHT22;12635;50.852;5.676;2023-05-07T09:16:28;25.50;99.90
24470;DHT22;12635;50.852;5.676;2023-05-07T09:18:56;23.20;99.90
24470;DHT22;12635;50.852;5.676;2023-05-07T09:21:23;23.20;99.90
24470;DHT22;12635;50.852;5.676;2023-05-07T09:23:53;24.40;99.90
24470;DHT22;12635;50.852;5.676;2023-05-07T09:26:20;24.90;99.90
24470;DHT22;12635;50.852;5.676;2023-05-07T09:28:47;22.90;99.90
24470;DHT22;12635;50.852;5.676;2023-05-07T09:31:14;23.30;99.90
24470;DHT22;12635;50.852;5.676;2023-05-07T09:33:41;23.80;99.90
24470;DHT22;12635;50.852;5.676;2023-05-07T09:36:08;23.20;99.90
24470;DHT22;12635;50.852;5.676;2023-05-07T09:38:36;22.30;99.90
24470;DHT22;12635;50.852;5.676;2023-05-07T09:41:05;21.70;99.90
24470;DHT22;12635;50.852;5.676;2023-05-07T09:43:33;22.00;99.90
24470;DHT22;12635;50.852;5.676;2023-05-07T09:46:03;22.20;99.90
24470;DHT22;12635;50.852;5.676;2023-05-07T09:48:34;22.50;99.90
24470;DHT22;12635;50.852;5.676;2023-05-07T09:51:03;23.20;99.90
24470;DHT22;12635;50.852;5.676;2023-05-07T09:53:33;22.50;99.90
24470;DHT22;12635;50.852;5.676;2023-05-07T09:56:00;21.80;99.90
24470;DHT22;12635;50.852;5.676;2023-05-07T09:58:28;21.90;99.90
24470;DHT22;12635;50.852;5.676;2023-05-07T10:00:55;22.40;99.90
24470;DHT22;12635;50.852;5.676;2023-05-07T10:03:23;22.60;99.90
24470;DHT22;12635;50.852;5.676;2023-05-07T10:05:51;22.40;99.90
24470;DHT22;12635;50.852;5.676;2023-05-07T10:08:18;22.40;99.90
24470;DHT22;12635;50.852;5.676;2023-05-07T10:10:45;22.60;99.90
24470;DHT22;12635;50.852;5.676;2023-05-07T10:13:12;22.30;99.90
24470;DHT22;12635;50.852;5.676;2023-05-07T10:15:41;22.40;99.90
24470;DHT22;12635;50.852;5.676;2023-05-07T10:18:07;22.70;99.90
24470;DHT22;12635;50.852;5.676;2023-05-07T10:20:34;22.70;99.90
24470;DHT22;12635;50.852;5.676;2023-05-07T10:23:02;22.10;99.90
24470;DHT22;12635;50.852;5.676;2023-05-07T10:25:31;22.00;99.90
24470;DHT22;12635;50.852;5.676;2023-05-07T10:27:59;21.60;99.90
24470;DHT22;12635;50.852;5.676;2023-05-07T10:30:26;21.70;99.90
24470;DHT22;12635;50.852;5.676;2023-05-07T10:33:01;22.00;99.90
24470;DHT22;12635;50.852;5.676;2023-05-07T10:35:32;21.60;99.90
24470;DHT22;12635;50.852;5.676;2023-05-07T10:38:02;21.40;99.90
24470;DHT22;12635;50.852;5.676;2023-05-07T10:40:30;21.40;99.90
24470;DHT22;12635;50.852;5.676;2023-05-07T10:42:57;21.40;99.90
24470;DHT22;12635;50.852;5.676;2023-05-07T10:45:25;21.50;99.90
24470;DHT22;12635;50.852;5.676;2023-05-07T10:48:09;21.10;99.90
24470;DHT22;12635;50.852;5.676;2023-05-07T10:50:36;20.90;99.90
24470;DHT22;12635;50.852;5.676;2023-05-07T10:55:52;20.70;99.90
24470;DHT22;12635;50.852;5.676;2023-05-07T10:58:38;20.50;99.90
24470;DHT22;12635;50.852;5.676;2023-05-07T11:01:05;20.20;99.90
24470;DHT22;12635;50.852;5.676;2023-05-07T11:03:33;20.30;99.90
24470;DHT22;12635;50.852;5.676;2023-05-07T11:06:10;20.30;99.90
24470;DHT22;12635;50.852;5.676;2023-05-07T11:08:53;20.40;99.90
24470;DHT22;12635;50.852;5.676;2023-05-07T11:11:33;20.50;99.90
24470;DHT22;12635;50.852;5.676;2023-05-07T11:14:10;20.40;99.90
24470;DHT22;12635;50.852;5.676;2023-05-07T11:16:37;20.60;99.90
24470;DHT22;12635;50.852;5.676;2023-05-07T11:19:05;20.40;99.90
24470;DHT22;12635;50.852;5.676;2023-05-07T11:21:32;20.20;99.90
24470;DHT22;12635;50.852;5.676;2023-05-07T11:24:00;20.20;99.90
24470;DHT22;12635;50.852;5.676;2023-05-07T11:26:28;20.60;99.90
24470;DHT22;12635;50.852;5.676;2023-05-07T11:28:55;20.50;99.90
24470;DHT22;12635;50.852;5.676;2023-05-07T11:31:23;20.60;99.90
24470;DHT22;12635;50.852;5.676;2023-05-07T11:33:51;20.30;99.90
24470;DHT22;12635;50.852;5.676;2023-05-07T11:36:20;20.30;99.90
24470;DHT22;12635;50.852;5.676;2023-05-07T11:38:47;20.10;99.90
24470;DHT22;12635;50.852;5.676;2023-05-07T11:41:15;20.10;99.90
24470;DHT22;12635;50.852;5.676;2023-05-07T11:43:55;20.00;99.90
24470;DHT22;12635;50.852;5.676;2023-05-07T11:46:23;20.20;99.90
24470;DHT22;12635;50.852;5.676;2023-05-07T11:48:49;20.30;99.90
24470;DHT22;12635;50.852;5.676;2023-05-07T11:51:21;20.10;99.90
24470;DHT22;12635;50.852;5.676;2023-05-07T11:53:48;20.10;99.90
24470;DHT22;12635;50.852;5.676;2023-05-07T11:56:16;20.10;99.90
24470;DHT22;12635;50.852;5.676;2023-05-07T11:58:43;19.90;99.90
24470;DHT22;12635;50.852;5.676;2023-05-07T12:01:11;19.80;99.90
24470;DHT22;12635;50.852;5.676;2023-05-07T12:03:39;19.80;99.90
24470;DHT22;12635;50.852;5.676;2023-05-07T12:06:08;19.70;99.90
24470;DHT22;12635;50.852;5.676;2023-05-07T12:08:37;19.80;99.90
24470;DHT22;12635;50.852;5.676;2023-05-07T12:11:06;19.80;99.90
24470;DHT22;12635;50.852;5.676;2023-05-07T12:13:33;19.90;99.90
24470;DHT22;12635;50.852;5.676;2023-05-07T12:16:00;20.10;99.90
24470;DHT22;12635;50.852;5.676;2023-05-07T12:18:28;20.10;99.90
24470;DHT22;12635;50.852;5.676;2023-05-07T12:20:55;20.00;99.90
24470;DHT22;12635;50.852;5.676;2023-05-07T12:23:22;20.00;99.90
24470;DHT22;12635;50.852;5.676;2023-05-07T12:25:50;20.20;99.90
24470;DHT22;12635;50.852;5.676;2023-05-07T12:28:18;19.90;99.90
24470;DHT22;12635;50.852;5.676;2023-05-07T12:30:46;20.20;99.90
24470;DHT22;12635;50.852;5.676;2023-05-07T12:33:15;19.90;99.90
24470;DHT22;12635;50.852;5.676;2023-05-07T12:35:42;20.10;99.90
24470;DHT22;12635;50.852;5.676;2023-05-07T12:38:11;20.50;99.90
24470;DHT22;12635;50.852;5.676;2023-05-07T12:40:38;20.10;99.90
24470;DHT22;12635;50.852;5.676;2023-05-07T12:43:07;20.40;99.90
24470;DHT22;12635;50.852;5.676;2023-05-07T12:45:36;20.20;99.90
24470;DHT22;12635;50.852;5.676;2023-05-07T12:48:03;20.00;99.90
24470;DHT22;12635;50.852;5.676;2023-05-07T12:50:31;20.10;99.90
24470;DHT22;12635;50.852;5.676;2023-05-07T12:52:58;20.30;99.90
24470;DHT22;12635;50.852;5.676;2023-05-07T12:55:25;20.20;99.90
24470;DHT22;12635;50.852;5.676;2023-05-07T12:57:52;20.30;99.90
24470;DHT22;12635;50.852;5.676;2023-05-07T13:00:33;20.10;99.90
24470;DHT22;12635;50.852;5.676;2023-05-07T13:03:00;20.00;99.90
24470;DHT22;12635;50.852;5.676;2023-05-07T13:05:27;20.00;99.90
24470;DHT22;12635;50.852;5.676;2023-05-07T13:07:54;20.10;99.90
24470;DHT22;12635;50.852;5.676;2023-05-07T13:10:21;20.20;99.90
24470;DHT22;12635;50.852;5.676;2023-05-07T13:12:48;20.00;99.90
24470;DHT22;12635;50.852;5.676;2023-05-07T13:15:15;20.00;99.90
24470;DHT22;12635;50.852;5.676;2023-05-07T13:17:43;20.00;99.90
24470;DHT22;12635;50.852;5.676;2023-05-07T13:20:10;19.90;99.90
24470;DHT22;12635;50.852;5.676;2023-05-07T13:22:38;20.30;99.90
24470;DHT22;12635;50.852;5.676;2023-05-07T13:25:05;19.90;99.90
24470;DHT22;12635;50.852;5.676;2023-05-07T13:27:32;19.70;99.90
24470;DHT22;12635;50.852;5.676;2023-05-07T13:30:01;19.80;99.90
24470;DHT22;12635;50.852;5.676;2023-05-07T13:32:27;20.40;99.90
24470;DHT22;12635;50.852;5.676;2023-05-07T13:34:55;19.80;99.90
24470;DHT22;12635;50.852;5.676;2023-05-07T13:37:22;19.90;99.90
24470;DHT22;12635;50.852;5.676;2023-05-07T13:39:49;20.10;99.90
24470;DHT22;12635;50.852;5.676;2023-05-07T13:42:16;20.10;99.90
24470;DHT22;12635;50.852;5.676;2023-05-07T13:44:43;20.00;99.90
24470;DHT22;12635;50.852;5.676;2023-05-07T13:47:10;20.10;99.90
24470;DHT22;12635;50.852;5.676;2023-05-07T13:49:37;20.20;99.90
24470;DHT22;12635;50.852;5.676;2023-05-07T13:52:05;20.30;99.90
24470;DHT22;12635;50.852;5.676;2023-05-07T13:54:32;20.30;99.90
24470;DHT22;12635;50.852;5.676;2023-05-07T13:56:59;20.60;99.90
24470;DHT22;12635;50.852;5.676;2023-05-07T13:59:27;20.80;99.90
24470;DHT22;12635;50.852;5.676;2023-05-07T14:01:53;20.80;99.90
24470;DHT22;12635;50.852;5.676;2023-05-07T14:04:21;20.70;99.90
24470;DHT22;12635;50.852;5.676;2023-05-07T14:06:48;20.60;99.90
24470;DHT22;12635;50.852;5.676;2023-05-07T14:09:16;20.60;99.90
24470;DHT22;12635;50.852;5.676;2023-05-07T14:11:43;20.60;99.90
24470;DHT22;12635;50.852;5.676;2023-05-07T14:14:11;20.60;99.90
24470;DHT22;12635;50.852;5.676;2023-05-07T14:16:38;20.60;99.90
24470;DHT22;12635;50.852;5.676;2023-05-07T14:19:05;20.50;99.90
24470;DHT22;12635;50.852;5.676;2023-05-07T14:21:31;20.50;99.90
24470;DHT22;12635;50.852;5.676;2023-05-07T14:23:58;20.50;99.90
24470;DHT22;12635;50.852;5.676;2023-05-07T14:26:27;20.50;99.90
24470;DHT22;12635;50.852;5.676;2023-05-07T14:28:54;20.60;99.90
24470;DHT22;12635;50.852;5.676;2023-05-07T14:31:23;20.60;99.90
24470;DHT22;12635;50.852;5.676;2023-05-07T14:33:50;20.40;99.90
24470;DHT22;12635;50.852;5.676;2023-05-07T14:36:17;20.40;99.90
24470;DHT22;12635;50.852;5.676;2023-05-07T14:38:45;20.50;99.90
24470;DHT22;12635;50.852;5.676;2023-05-07T14:41:12;20.60;99.90
24470;DHT22;12635;50.852;5.676;2023-05-07T14:43:41;20.60;99.90
24470;DHT22;12635;50.852;5.676;2023-05-07T14:46:07;20.50;99.90
24470;DHT22;12635;50.852;5.676;2023-05-07T14:48:34;20.30;99.90
24470;DHT22;12635;50.852;5.676;2023-05-07T14:51:01;20.30;99.90
24470;DHT22;12635;50.852;5.676;2023-05-07T14:53:28;20.50;99.90
24470;DHT22;12635;50.852;5.676;2023-05-07T14:55:55;20.40;99.90
24470;DHT22;12635;50.852;5.676;2023-05-07T14:58:22;20.30;99.90
24470;DHT22;12635;50.852;5.676;2023-05-07T15:00:50;20.30;99.90
24470;DHT22;12635;50.852;5.676;2023-05-07T15:03:17;20.20;99.90
24470;DHT22;12635;50.852;5.676;2023-05-07T15:05:43;20.20;99.90
24470;DHT22;12635;50.852;5.676;2023-05-07T15:08:10;20.30;99.90
24470;DHT22;12635;50.852;5.676;2023-05-07T15:10:37;20.00;99.90
24470;DHT22;12635;50.852;5.676;2023-05-07T15:13:06;19.80;99.90
24470;DHT22;12635;50.852;5.676;2023-05-07T15:15:33;19.90;99.90
24470;DHT22;12635;50.852;5.676;2023-05-07T15:18:02;20.00;99.90
24470;DHT22;12635;50.852;5.676;2023-05-07T15:20:29;20.20;99.90
24470;DHT22;12635;50.852;5.676;2023-05-07T15:22:56;20.10;99.90
24470;DHT22;12635;50.852;5.676;2023-05-07T15:25:23;20.20;99.90
24470;DHT22;12635;50.852;5.676;2023-05-07T15:27:50;20.20;99.90
24470;DHT22;12635;50.852;5.676;2023-05-07T15:30:17;20.10;99.90
24470;DHT22;12635;50.852;5.676;2023-05-07T15:32:45;20.30;99.90
24470;DHT22;12635;50.852;5.676;2023-05-07T15:35:13;20.20;99.90